Latest Weather Observations for Sydney Airport

IDN60801

Issued at 7:13 am EDT Sunday 29 November 2020 (issued every 10 minutes, with the page automatically refreshed every 10 minutes)

About weather observations | Map of weather stations | Latest weather observations for NSW | Other Formats
Station Details ID: 066037 Name: SYDNEY AIRPORT AMO Lat: -33.95 Lon: 151.17 Height: 6.0 m
Data from the previous 72 hours. | See also: Recent months at Sydney Airport
Date/Time
EDT
Temp
°C
App
Temp
°C
Dew
Point
°C
Rel
Hum
%
Delta-T
°C
Wind Press
QNH
hPa
Press
MSL
hPa
Rain since
9am
mm
Dir  Spd
km/h
Gust
km/h
Spd
kts
Gust
kts
29/07:00am 31.2 25.5 11.1 29 11.7 NNW 32 41 17 22 1000.6 1000.6 0.0
29/06:30am 31.8 25.5 11.0 28 12.0 NW 35 48 19 26 1000.6 1000.6 0.0
29/06:00am 31.5 26.7 11.8 30 11.6 NW 28 37 15 20 1000.6 1000.6 0.0
29/05:30am 31.3 25.9 12.2 31 11.2 NW 32 41 17 22 1000.5 1000.5 0.0
29/05:00am 31.2 25.3 12.5 31 11.1 NW 35 52 19 28 999.9 999.9 0.0
29/04:39am 31.1 25.6 12.5 32 11.0 NW 33 52 18 28 1000.7 1000.7 0.0
29/04:30am 31.5 25.3 12.8 32 11.1 NNW 37 50 20 27 1000.2 1000.2 0.0
29/04:00am 31.0 24.3 12.4 32 11.0 NNW 39 52 21 28 1001.3 1001.3 0.0
29/03:39am 31.3 25.8 12.6 31 11.1 NW 33 56 18 30 1001.7 1001.7 0.0
29/03:30am 31.1 26.6 12.5 32 11.0 NW 28 39 15 21 1001.9 1001.9 0.0
29/03:00am 31.1 25.7 12.9 32 10.9 NW 33 44 18 24 1002.2 1002.2 0.0
29/02:30am 30.4 24.4 14.5 38 9.7 NNW 39 54 21 29 1002.2 1002.2 0.0
29/02:19am 30.0 26.8 15.3 41 9.0 NNW 26 32 14 17 1002.7 1002.7 0.0
29/02:00am 29.0 27.6 16.5 46 7.8 NW 19 22 10 12 1004.7 1004.7 0.0
29/01:30am 27.4 28.0 17.6 55 6.2 N 11 15 6 8 1005.7 1005.7 0.0
29/01:00am 26.7 26.9 18.6 61 5.2 NE 15 19 8 10 1006.6 1006.6 0.0
29/12:30am 23.8 23.3 18.7 73 3.2 SSE 19 32 10 17 1006.4 1006.4 0.0
29/12:00am 24.2 23.9 19.5 75 3.0 SSW 20 32 11 17 1007.1 1007.1 0.0
 
Date/Time
EDT
Temp
°C
App
Temp
°C
Dew
Point
°C
Rel
Hum
%
Delta-T
°C
Wind Press
QNH
hPa
Press
MSL
hPa
Rain since
9am
mm
Dir  Spd
km/h
Gust
km/h
Spd
kts
Gust
kts
28/11:30pm 23.4 19.9 18.7 75 3.0 SSE 35 43 19 23 1005.9 1005.9 0.0
28/11:00pm 25.2 20.2 17.9 64 4.6 S 41 52 22 28 1004.9 1004.9 0.0
28/10:50pm 26.6 25.4 15.0 49 7.0 ESE 15 50 8 27 1004.7 1004.7 0.0
28/10:30pm 32.0 32.3 15.9 38 10.0 N 9 11 5 6 1004.0 1004.0 0.0
28/10:00pm 31.7 31.2 16.0 38 9.8 N 13 15 7 8 1004.1 1004.1 0.0
28/09:30pm 30.7 29.6 16.3 42 9.0 NNE 17 19 9 10 1004.1 1004.1 0.0
28/09:00pm 31.3 30.8 16.9 42 9.1 NNE 15 17 8 9 1004.2 1004.2 0.0
28/08:30pm 30.5 29.6 16.9 44 8.6 NNE 17 19 9 10 1004.0 1004.0 0.0
28/08:00pm 31.8 29.9 15.7 37 10.0 NNE 20 28 11 15 1004.1 1004.1 0.0
28/07:30pm 35.0 32.6 12.6 26 13.5 NE 17 22 9 12 1003.9 1003.9 0.0
28/07:00pm 38.8 35.1 9.4 17 17.2 NNW 19 28 10 15 1003.5 1003.5 0.0
28/06:30pm 39.1 34.0 7.7 15 17.9 NNW 24 33 13 18 1003.4 1003.4 0.0
28/06:00pm 39.0 32.8 7.7 15 17.9 NNW 30 39 16 21 1003.3 1003.3 0.0
28/05:30pm 40.5 33.7 6.7 13 19.1 NNW 32 41 17 22 1003.3 1003.3 0.0
28/05:00pm 40.8 34.0 7.0 13 19.2 NW 32 39 17 21 1003.6 1003.6 0.0
28/04:30pm 41.1 34.8 7.2 13 19.3 NW 30 39 16 21 1003.9 1003.9 0.0
28/04:00pm 41.9 34.5 6.7 12 20.0 WNW 35 48 19 26 1004.2 1004.2 0.0
28/03:30pm 41.7 34.1 7.7 13 19.6 NW 37 54 20 29 1004.4 1004.4 0.0
28/03:09pm 41.7 35.1 7.7 13 19.6 WNW 32 59 17 32 1004.7 1004.7 0.0
28/03:00pm 41.3 34.4 7.4 13 19.4 WNW 33 44 18 24 1004.8 1004.8 0.0
28/02:30pm 41.1 35.0 8.3 14 19.0 NW 30 39 16 21 1005.3 1005.3 0.0
28/02:20pm 41.0 34.5 8.2 14 19.0 NW 32 57 17 31 1005.3 1005.3 0.0
28/02:00pm 41.6 35.0 8.7 14 19.2 WNW 33 43 18 23 1005.5 1005.5 0.0
28/01:40pm 40.8 33.7 8.1 14 18.8 WNW 35 54 19 29 1005.6 1005.6 0.0
28/01:30pm 41.0 34.3 8.2 14 19.0 WNW 33 41 18 22 1005.7 1005.7 0.0
28/01:15pm 40.8 34.3 8.1 14 18.8 NW 32 50 17 27 1006.0 1006.0 0.0
28/01:00pm 40.7 34.2 9.0 15 18.5 NW 33 43 18 23 1006.3 1006.3 0.0
28/12:56pm 41.1 33.9 9.3 15 18.7 NW 37 48 20 26 1006.4 1006.4 0.0
28/12:48pm 40.4 33.5 8.8 15 18.4 NW 35 48 19 26 1006.5 1006.5 0.0
28/12:30pm 40.3 34.5 11.4 18 17.4 NW 33 44 18 24 1006.7 1006.7 0.0
28/12:00pm 40.7 36.0 13.3 20 17.0 NW 30 39 16 21 1007.0 1007.0 0.0
28/11:30am 38.6 33.7 13.8 23 15.4 NW 32 39 17 21 1007.4 1007.4 0.0
28/11:00am 37.5 32.9 13.5 24 14.8 NW 30 39 16 21 1007.7 1007.7 0.0
28/10:30am 36.3 32.2 13.7 25 13.9 NW 28 35 15 19 1008.1 1008.1 0.0
28/10:00am 34.3 32.8 16.2 34 11.5 NW 19 28 10 15 1008.4 1008.4 0.0
28/09:30am 31.2 31.5 17.9 45 8.5 WNW 13 17 7 9 1008.9 1008.9 0.0
28/09:00am 29.3 30.2 18.4 51 7.0 WNW 11 15 6 8 1009.4 1009.4 0.0
28/08:30am 27.1 28.0 19.2 62 5.1 WNW 13 17 7 9 1009.8 1009.8 0.0
28/08:00am 25.6 25.9 18.8 66 4.3 NW 15 19 8 10 1009.8 1009.8 0.0
28/07:30am 24.1 24.3 18.5 71 3.5 NW 15 19 8 10 1009.7 1009.7 0.0
28/07:00am 23.2 23.7 18.3 74 3.1 NW 13 17 7 9 1009.8 1009.8 0.0
28/06:30am 22.7 23.7 18.7 78 2.5 NNW 11 13 6 7 1009.7 1009.7 0.0
28/06:00am 22.1 22.7 18.7 81 2.1 N 13 13 7 7 1009.5 1009.5 0.0
28/05:30am 21.9 23.7 18.7 82 2.0 NNW 7 11 4 6 1009.6 1009.6 0.0
28/05:00am 21.9 23.2 18.5 81 2.1 NNW 9 11 5 6 1009.5 1009.5 0.0
28/04:30am 22.1 23.3 19.1 83 1.9 N 11 13 6 7 1009.3 1009.3 0.0
28/04:00am 22.2 23.4 19.0 82 2.0 N 11 13 6 7 1009.6 1009.6 0.0
28/03:30am 22.4 24.0 19.2 82 2.0 NNW 9 13 5 7 1009.8 1009.8 0.0
28/03:00am 22.5 25.8 19.1 81 2.2 CALM 0 0 0 0 1010.1 1010.1 0.0
28/02:30am 22.7 26.0 19.1 80 2.3 CALM 0 0 0 0 1010.4 1010.4 0.0
28/02:00am 22.4 25.5 18.6 79 2.4 CALM 0 0 0 0 1010.8 1010.8 0.0
28/01:30am 23.1 25.3 19.5 80 2.3 N 7 9 4 5 1011.3 1011.3 0.0
28/01:00am 22.6 24.4 18.8 79 2.4 NE 7 9 4 5 1011.6 1011.6 0.0
28/12:30am 23.2 24.8 19.2 78 2.5 NNE 9 9 5 5 1012.0 1012.0 0.0
28/12:00am 23.4 25.0 19.1 77 2.7 NNE 9 11 5 6 1012.2 1012.2 0.0
 
Date/Time
EDT
Temp
°C
App
Temp
°C
Dew
Point
°C
Rel
Hum
%
Delta-T
°C
Wind Press
QNH
hPa
Press
MSL
hPa
Rain since
9am
mm
Dir  Spd
km/h
Gust
km/h
Spd
kts
Gust
kts
27/11:30pm 23.4 25.3 18.9 76 2.9 N 7 9 4 5 1012.6 1012.6 0.0
27/11:00pm 23.9 25.2 19.2 75 3.0 N 11 13 6 7 1012.9 1012.9 0.0
27/10:30pm 24.0 25.2 19.1 74 3.1 NNE 11 13 6 7 1013.0 1013.0 0.0
27/10:00pm 23.9 23.9 19.0 74 3.1 N 17 24 9 13 1013.1 1013.1 0.0
27/09:30pm 23.5 22.1 18.8 75 3.0 N 24 32 13 17 1013.2 1013.2 0.0
27/09:00pm 23.7 22.6 19.4 77 2.8 NNE 24 30 13 16 1013.1 1013.1 0.0
27/08:30pm 23.1 19.7 19.1 78 2.5 NNE 35 43 19 23 1013.1 1013.1 0.0
27/08:00pm 23.5 20.6 18.8 75 3.0 NNE 32 43 17 23 1012.9 1012.9 0.0
27/07:30pm 23.9 20.2 18.3 71 3.5 NNE 35 48 19 26 1013.0 1013.0 0.0
27/07:00pm 24.6 22.1 18.1 67 4.1 NNE 28 35 15 19 1013.1 1013.1 0.0
27/06:30pm 24.4 21.3 17.4 65 4.4 NNE 30 37 16 20 1012.9 1012.9 0.0
27/06:00pm 24.3 22.5 17.8 67 4.1 NE 24 30 13 16 1012.8 1012.8 0.0
27/05:30pm 25.1 22.0 17.6 63 4.7 NE 30 33 16 18 1012.6 1012.6 0.0
27/05:00pm 24.9 21.8 17.4 63 4.7 NE 30 35 16 19 1012.6 1012.6 0.0
27/04:30pm 26.0 23.4 17.9 61 5.1 ENE 28 35 15 19 1013.0 1013.0 0.0
27/04:00pm 25.6 23.3 16.7 58 5.5 ENE 24 32 13 17 1013.4 1013.4 0.0
27/03:30pm 25.4 22.2 17.3 61 5.0 ENE 30 35 16 19 1013.6 1013.6 0.0
27/03:00pm 25.2 22.2 16.9 60 5.1 ENE 28 35 15 19 1014.2 1014.2 0.0
27/02:30pm 25.6 22.9 17.5 61 5.1 ENE 28 35 15 19 1014.6 1014.6 0.0
27/02:00pm 24.9 22.2 16.6 60 5.1 ENE 26 32 14 17 1015.4 1015.4 0.0
27/01:30pm 26.0 24.0 16.5 55 5.9 ENE 22 28 12 15 1015.9 1015.9 0.0
27/01:00pm 24.3 21.7 16.0 60 5.0 SE 24 28 13 15 1016.5 1016.5 0.0
27/12:30pm 24.8 23.0 16.0 58 5.4 SE 20 26 11 14 1016.8 1016.8 0.0
27/12:00pm 23.6 23.5 15.9 62 4.7 E 11 19 6 10 1017.3 1017.3 0.0
27/11:30am 21.6 21.4 14.7 65 4.1 ESE 9 17 5 9 1018.1 1018.1 0.0
27/11:00am 21.4 20.9 14.8 66 3.9 ESE 11 13 6 7 1018.6 1018.6 0.0
27/10:30am 20.9 20.4 15.0 69 3.5 SSE 11 15 6 8 1018.9 1018.9 0.0
27/10:00am 20.4 19.4 14.7 70 3.3 SSE 13 17 7 9 1019.0 1019.0 0.0
27/09:30am 20.2 19.4 15.0 72 3.1 S 13 17 7 9 1019.2 1019.2 0.0
27/09:00am 20.0 18.7 14.8 72 3.0 S 15 19 8 10 1019.4 1019.4 0.0
27/08:30am 20.0 18.8 15.0 73 2.9 S 15 19 8 10 1019.2 1019.2 0.0
27/08:00am 19.6 17.5 14.6 73 2.9 S 19 24 10 13 1019.1 1019.1 0.0
27/07:30am 19.3 17.4 14.1 72 3.0 SSW 17 20 9 11 1019.0 1019.0 0.0
27/07:00am 19.2 17.2 14.9 76 2.5 S 19 26 10 14 1019.0 1019.0 0.0
27/06:30am 19.0 16.7 14.7 76 2.5 S 20 26 11 14 1019.1 1019.1 0.0
27/06:00am 18.8 16.1 14.7 77 2.4 S 22 28 12 15 1018.6 1018.6 0.0
27/05:30am 18.9 16.2 14.6 76 2.5 S 22 32 12 17 1018.2 1018.2 0.0
27/05:00am 19.1 15.8 15.0 77 2.4 S 26 32 14 17 1018.1 1018.1 0.0
27/04:30am 18.9 14.7 13.5 71 3.1 S 28 33 15 18 1017.8 1017.8 0.0
27/04:00am 19.1 15.3 14.8 76 2.5 S 28 35 15 19 1017.7 1017.7 0.0
27/03:30am 19.4 15.4 15.1 76 2.5 S 30 39 16 21 1017.7 1017.7 0.0
27/03:00am 19.6 15.3 15.3 76 2.5 S 32 39 17 21 1017.8 1017.8 0.0
27/02:30am 19.6 15.0 14.6 73 2.9 S 32 39 17 21 1017.9 1017.9 0.0
27/02:00am 19.8 14.5 14.2 70 3.2 S 35 41 19 22 1017.9 1017.9 0.0
27/01:30am 20.0 14.9 14.8 72 3.0 S 35 44 19 24 1017.9 1017.9 0.0
27/01:00am 20.0 14.6 15.0 73 2.9 S 37 48 20 26 1017.9 1017.9 0.0
27/12:30am 20.1 15.5 16.1 78 2.4 S 35 46 19 25 1017.7 1017.7 0.0
27/12:00am 20.2 15.1 16.8 81 2.1 S 39 50 21 27 1017.7 1017.7 0.0
 
Date/Time
EDT
Temp
°C
App
Temp
°C
Dew
Point
°C
Rel
Hum
%
Delta-T
°C
Wind Press
QNH
hPa
Press
MSL
hPa
Rain since
9am
mm
Dir  Spd
km/h
Gust
km/h
Spd
kts
Gust
kts
26/11:30pm 20.3 14.9 16.9 81 2.1 S 41 56 22 30 1017.7 1017.7 0.0
26/11:00pm 20.4 14.6 17.0 81 2.1 S 43 54 23 29 1017.5 1017.5 0.0
26/10:30pm 20.6 15.6 18.0 85 1.6 S 41 50 22 27 1017.3 1017.3 0.0
26/10:00pm 20.8 15.4 18.4 86 1.5 S 44 57 24 31 1016.7 1016.7 0.0
26/09:30pm 20.9 16.7 18.8 88 1.3 S 39 54 21 29 1015.9 1015.9 0.0
26/09:00pm 21.2 16.3 19.1 88 1.3 S 43 54 23 29 1015.3 1015.3 0.0
26/08:57pm 21.0 16.0 18.9 88 1.3 S 43 54 23 29 1015.2 1015.2 0.0
26/08:30pm 21.6 18.1 18.8 84 1.8 S 35 44 19 24 1014.5 1014.5 0.0
26/08:00pm 24.3 24.5 15.8 59 5.1 ENE 9 28 5 15 1013.1 1013.1 0.0
26/07:30pm 25.0 23.2 15.6 56 5.7 NNE 19 26 10 14 1011.9 1011.9 0.0
26/07:00pm 25.6 24.3 15.9 55 5.9 NNE 17 20 9 11 1011.4 1011.4 0.0
26/06:30pm 26.8 25.3 16.4 53 6.4 NNE 19 24 10 13 1010.7 1010.7 0.0
26/06:00pm 27.3 25.9 16.6 52 6.6 NNE 19 24 10 13 1010.3 1010.3 0.0
26/05:30pm 27.9 25.8 16.2 49 7.2 NE 22 30 12 16 1009.9 1009.9 0.0
26/05:00pm 28.3 25.8 15.2 44 8.0 NE 22 30 12 16 1009.7 1009.7 0.0
26/04:30pm 29.5 26.3 15.2 41 8.8 NE 26 32 14 17 1009.6 1009.6 0.0
26/04:00pm 29.7 26.0 15.0 40 9.0 NE 28 32 15 17 1009.6 1009.6 0.0
26/03:30pm 30.4 27.2 15.3 40 9.3 NE 26 32 14 17 1009.5 1009.5 0.0
26/03:00pm 29.9 27.0 16.0 43 8.6 ENE 26 32 14 17 1009.6 1009.6 0.0
26/02:30pm 30.1 26.8 15.0 40 9.2 ENE 26 30 14 16 1009.7 1009.7 0.0
26/02:00pm 31.2 27.9 16.0 40 9.5 ENE 28 30 15 16 1009.9 1009.9 0.0
26/01:30pm 31.6 28.3 15.1 36 10.2 E 26 30 14 16 1010.2 1010.2 0.0
26/01:00pm 31.9 30.0 15.8 38 10.0 E 20 24 11 13 1010.5 1010.5 0.0
26/12:30pm 31.4 29.6 12.2 30 11.3 ESE 13 17 7 9 1010.9 1010.9 0.0
26/12:00pm 31.3 29.8 13.1 33 10.9 E 13 19 7 10 1011.1 1011.1 0.0
26/11:30am 30.3 29.6 13.1 34 10.2 E 9 13 5 7 1011.3 1011.3 0.0
26/11:00am 28.8 29.0 14.6 42 8.6 N 7 13 4 7 1011.6 1011.6 0.0
26/10:30am 27.7 27.3 14.0 43 8.2 NNW 9 15 5 8 1011.8 1011.8 0.0
26/10:00am 26.6 26.3 14.4 47 7.3 NW 9 15 5 8 1011.8 1011.8 0.0
26/09:30am 25.8 24.7 14.3 49 6.8 WNW 13 17 7 9 1012.1 1012.1 0.0
26/09:00am 24.6 23.5 14.4 53 6.0 WNW 13 17 7 9 1012.1 1012.1 1.2
26/08:30am 22.9 22.3 14.5 59 5.0 NW 11 15 6 8 1012.4 1012.4 1.2
26/08:00am 21.6 20.8 14.0 62 4.4 WNW 11 15 6 8 1012.2 1012.2 1.2
26/07:30am 21.3 20.9 14.0 63 4.2 NW 9 13 5 7 1012.0 1012.0 1.2

Other formats

Comma delimited format used in spreadsheet applications
http://www.bom.gov.au/fwo/IDN60801/IDN60801.94767.axf

JavaScript Object Notation format (JSON) in row-major order
http://www.bom.gov.au/fwo/IDN60801/IDN60801.94767.json

Data quality

Most of these data are generated automatically and are frequently updated. Quality checks on data are not normally performed. It is possible for incorrect values to appear. Refer to information at About Latest Weather Observations and please check the disclaimer before using these data.